createdAt,value
2023-04-21T00:00:59.455Z,28.35
2023-04-21T00:03:37.260Z,28.37
2023-04-21T00:06:11.330Z,28.12
2023-04-21T00:08:44.763Z,27.70
2023-04-21T00:11:18.531Z,27.96
2023-04-21T00:13:51.964Z,28.22
2023-04-21T00:16:25.666Z,28.31
2023-04-21T00:18:59.545Z,28.44
2023-04-21T00:21:33.212Z,28.65
2023-04-21T00:24:08.263Z,28.83
2023-04-21T00:26:44.916Z,29.07
2023-04-21T00:29:19.100Z,29.02
2023-04-21T00:31:53.352Z,29.28
2023-04-21T00:34:26.941Z,29.46
2023-04-21T00:37:00.633Z,29.60
2023-04-21T00:39:34.145Z,29.62
2023-04-21T00:42:07.968Z,29.56
2023-04-21T00:44:41.574Z,29.77
2023-04-21T00:47:15.304Z,29.86
2023-04-21T00:49:49.447Z,29.91
2023-04-21T00:52:23.346Z,30.06
2023-04-21T00:54:57.582Z,29.82
2023-04-21T00:57:32.451Z,29.61
2023-04-21T01:00:09.105Z,29.46
2023-04-21T01:02:45.005Z,29.50
2023-04-21T01:05:20.702Z,29.47
2023-04-21T01:07:54.231Z,29.51
2023-04-21T01:10:29.230Z,29.54
2023-04-21T01:13:03.488Z,29.50
2023-04-21T01:15:37.090Z,29.96
2023-04-21T01:18:11.913Z,30.10
2023-04-21T01:20:46.139Z,30.04
2023-04-21T01:23:21.236Z,30.04
2023-04-21T01:25:55.154Z,30.19
2023-04-21T01:28:29.046Z,30.04
2023-04-21T01:31:02.626Z,30.15
2023-04-21T01:33:36.574Z,30.23
2023-04-21T01:36:11.350Z,30.32
2023-04-21T01:38:45.019Z,30.65
2023-04-21T01:41:19.682Z,30.69
2023-04-21T01:43:53.169Z,30.87
2023-04-21T01:46:27.021Z,30.67
2023-04-21T01:49:00.799Z,30.94
2023-04-21T01:51:34.560Z,30.95
2023-04-21T01:54:08.618Z,30.97
2023-04-21T01:56:42.350Z,30.77
2023-04-21T01:59:15.904Z,30.96
2023-04-21T02:01:52.201Z,30.88
2023-04-21T02:04:26.179Z,30.80
2023-04-21T02:07:00.208Z,31.17
2023-04-21T02:09:34.837Z,31.18
2023-04-21T02:12:09.831Z,31.39
2023-04-21T02:14:43.153Z,31.46
2023-04-21T02:17:17.933Z,31.68
2023-04-21T02:19:52.472Z,31.67
2023-04-21T02:22:27.488Z,31.71
2023-04-21T02:25:00.771Z,32.11
2023-04-21T02:27:34.682Z,31.84
2023-04-21T02:30:11.318Z,31.72
2023-04-21T02:32:45.167Z,32.05
2023-04-21T02:35:18.781Z,31.97
2023-04-21T02:37:52.424Z,31.99
2023-04-21T02:40:27.583Z,32.07
2023-04-21T02:43:03.144Z,31.85
2023-04-21T02:45:38.110Z,31.76
2023-04-21T02:48:12.207Z,31.78
2023-04-21T02:50:47.069Z,31.75
2023-04-21T02:53:20.837Z,32.05
2023-04-21T02:55:54.705Z,31.93
2023-04-21T02:58:28.598Z,31.99
2023-04-21T03:01:02.413Z,31.80
2023-04-21T03:03:36.454Z,31.96
2023-04-21T03:06:10.517Z,32.21
2023-04-21T03:08:44.904Z,32.03
2023-04-21T03:11:18.454Z,32.28
2023-04-21T03:13:54.152Z,32.15
2023-04-21T03:16:28.247Z,32.20
2023-04-21T03:19:02.259Z,31.95
2023-04-21T03:21:37.145Z,31.86
2023-04-21T03:24:11.037Z,32.10
2023-04-21T03:26:44.758Z,31.94
2023-04-21T03:29:18.735Z,32.07
2023-04-21T03:31:52.271Z,31.75
2023-04-21T03:34:26.356Z,32.57
2023-04-21T03:37:01.611Z,32.43
2023-04-21T03:39:35.209Z,32.65
2023-04-21T03:42:08.707Z,32.37
2023-04-21T03:44:42.236Z,32.02
2023-04-21T03:47:15.932Z,31.64
2023-04-21T03:49:49.463Z,31.66
2023-04-21T03:52:26.094Z,32.13
2023-04-21T03:54:59.656Z,31.75
2023-04-21T03:57:35.258Z,31.88
2023-04-21T04:00:12.992Z,31.78
2023-04-21T04:02:46.574Z,31.63
2023-04-21T04:05:23.948Z,31.80
2023-04-21T04:07:58.876Z,31.71
2023-04-21T04:10:33.028Z,32.07
2023-04-21T04:13:07.699Z,31.77
2023-04-21T04:15:42.092Z,31.79
2023-04-21T04:18:18.481Z,31.63
2023-04-21T04:20:55.705Z,31.61
2023-04-21T04:23:29.516Z,31.46
2023-04-21T04:26:11.925Z,31.22
2023-04-21T04:28:44.823Z,30.96
2023-04-21T04:31:18.627Z,31.27
2023-04-21T04:33:54.110Z,31.04
2023-04-21T04:36:28.628Z,30.81
2023-04-21T04:39:02.473Z,30.75
2023-04-21T04:41:36.570Z,30.49
2023-04-21T04:44:11.329Z,30.60
2023-04-21T04:46:45.664Z,30.48
2023-04-21T04:49:19.384Z,30.30
2023-04-21T04:51:53.050Z,30.07
2023-04-21T04:54:26.686Z,29.91
2023-04-21T04:57:01.127Z,29.74
2023-04-21T04:59:36.789Z,29.65
2023-04-21T05:02:11.544Z,29.61
2023-04-21T05:04:45.230Z,29.71
2023-04-21T05:07:19.356Z,29.65
2023-04-21T05:09:55.030Z,29.36
2023-04-21T05:12:28.697Z,29.14
2023-04-21T05:15:02.192Z,28.87
2023-04-21T05:17:36.881Z,29.02
2023-04-21T05:20:11.980Z,28.79
2023-04-21T05:22:47.001Z,28.66
2023-04-21T05:25:20.923Z,28.33
2023-04-21T05:27:54.514Z,28.38
2023-04-21T05:30:28.168Z,28.26
2023-04-21T05:33:01.706Z,28.41
2023-04-21T05:35:37.768Z,28.19
2023-04-21T05:38:10.708Z,28.13
2023-04-21T05:40:45.398Z,28.07
2023-04-21T05:43:19.769Z,28.01
2023-04-21T05:45:53.506Z,28.25
2023-04-21T05:48:27.026Z,28.15
2023-04-21T05:51:01.875Z,28.09
2023-04-21T05:53:35.588Z,27.87
2023-04-21T05:56:11.691Z,27.64
2023-04-21T05:58:45.245Z,27.51
2023-04-21T06:01:19.014Z,27.62
2023-04-21T06:03:52.386Z,27.27
2023-04-21T06:06:27.999Z,27.24
2023-04-21T06:09:01.583Z,27.21
2023-04-21T06:11:35.282Z,27.25
2023-04-21T06:14:09.198Z,27.26
2023-04-21T06:16:42.776Z,27.24
2023-04-21T06:19:16.444Z,27.33
2023-04-21T06:21:57.988Z,27.18
2023-04-21T06:24:34.088Z,26.98
2023-04-21T06:27:12.970Z,27.14
2023-04-21T06:29:46.539Z,27.01
2023-04-21T06:32:19.881Z,27.03
2023-04-21T06:34:53.480Z,27.15
2023-04-21T06:37:27.029Z,27.08
2023-04-21T06:40:00.631Z,26.38
2023-04-21T06:42:35.393Z,24.88
2023-04-21T06:45:11.403Z,23.04
2023-04-21T06:47:45.289Z,20.85
2023-04-21T06:50:19.199Z,19.07
2023-04-21T06:52:52.867Z,17.61
2023-04-21T06:55:27.107Z,16.71
2023-04-21T06:58:00.712Z,15.92
2023-04-21T07:00:34.444Z,15.58
2023-04-21T07:03:11.151Z,14.97
2023-04-21T07:05:44.976Z,14.24
2023-04-21T07:08:18.430Z,13.66
2023-04-21T07:10:59.910Z,12.96
2023-04-21T07:13:34.060Z,12.91
2023-04-21T07:16:08.420Z,12.66
2023-04-21T07:18:43.505Z,12.19
2023-04-21T07:21:17.217Z,12.23
2023-04-21T07:23:51.266Z,12.11
2023-04-21T07:26:24.890Z,11.90
2023-04-21T07:28:58.687Z,11.35
2023-04-21T07:31:32.569Z,11.11
2023-04-21T07:34:06.867Z,11.32
2023-04-21T07:36:40.461Z,11.35
2023-04-21T07:39:14.504Z,11.03
2023-04-21T07:41:48.418Z,10.93
2023-04-21T07:44:22.146Z,10.23
2023-04-21T07:46:55.802Z,9.74
2023-04-21T07:49:29.799Z,9.19
2023-04-21T07:52:04.001Z,9.73
2023-04-21T07:54:37.664Z,9.42
2023-04-21T07:57:11.336Z,10.13
2023-04-21T07:59:45.050Z,10.18
2023-04-21T08:02:18.709Z,10.51
2023-04-21T08:04:52.168Z,10.52
2023-04-21T08:07:25.888Z,9.95
2023-04-21T08:10:00.510Z,10.20
2023-04-21T08:12:35.410Z,10.46
2023-04-21T08:15:11.962Z,9.98
2023-04-21T08:17:45.947Z,9.24
2023-04-21T08:20:19.768Z,9.88
2023-04-21T08:22:53.290Z,9.93
2023-04-21T08:28:08.514Z,10.43
2023-04-21T08:30:42.691Z,9.98
2023-04-21T08:33:16.588Z,9.44
2023-04-21T08:36:02.504Z,9.00
2023-04-21T08:38:26.167Z,8.69
2023-04-21T08:41:01.212Z,9.77
2023-04-21T08:43:34.846Z,8.69
2023-04-21T08:46:10.545Z,8.74
2023-04-21T08:48:44.334Z,8.72
2023-04-21T08:51:22.378Z,9.68
2023-04-21T08:53:58.339Z,9.48
2023-04-21T08:56:32.096Z,9.34
2023-04-21T08:59:06.050Z,9.74
2023-04-21T09:02:10.196Z,10.27
2023-04-21T09:04:45.633Z,10.96
2023-04-21T09:07:34.686Z,10.58
2023-04-21T09:10:10.432Z,9.30
2023-04-21T09:12:43.864Z,8.91
2023-04-21T09:15:17.351Z,9.54
2023-04-21T09:17:52.473Z,9.76
2023-04-21T09:20:27.579Z,10.64
2023-04-21T09:23:01.309Z,11.44
2023-04-21T09:25:36.067Z,10.61
2023-04-21T09:28:11.394Z,9.81
2023-04-21T09:30:45.541Z,9.90
2023-04-21T09:33:27.996Z,10.54
2023-04-21T09:35:56.026Z,11.51
2023-04-21T09:38:29.645Z,12.05
2023-04-21T09:41:03.662Z,11.56
2023-04-21T09:43:37.617Z,10.74
2023-04-21T09:46:12.642Z,10.19
2023-04-21T09:48:48.085Z,10.13
2023-04-21T09:51:36.866Z,10.59
2023-04-21T09:56:43.977Z,9.37
2023-04-21T09:59:22.349Z,9.28
2023-04-21T10:01:57.028Z,8.82
2023-04-21T10:04:32.910Z,8.05
2023-04-21T10:07:07.700Z,7.36
2023-04-21T10:09:44.510Z,7.18
2023-04-21T10:12:16.991Z,7.27
2023-04-21T10:14:53.835Z,9.05
2023-04-21T10:17:28.466Z,9.36
2023-04-21T10:20:02.401Z,9.20
2023-04-21T10:22:38.969Z,8.78
2023-04-21T10:25:14.502Z,8.42
2023-04-21T10:27:48.043Z,7.68
2023-04-21T10:30:26.983Z,7.59
2023-04-21T10:33:06.928Z,8.78
2023-04-21T10:36:02.217Z,9.33
2023-04-21T10:38:40.235Z,9.10
2023-04-21T10:41:31.748Z,9.50
2023-04-21T10:44:12.917Z,9.57
2023-04-21T10:46:50.795Z,9.57
2023-04-21T10:49:29.128Z,9.34
2023-04-21T10:52:11.853Z,9.12
2023-04-21T10:54:53.846Z,8.80
2023-04-21T10:57:29.331Z,8.43
2023-04-21T11:00:05.592Z,8.44
2023-04-21T11:02:40.547Z,9.45
2023-04-21T11:05:14.402Z,9.70
2023-04-21T11:07:48.047Z,9.40
2023-04-21T11:10:36.391Z,8.41
2023-04-21T11:13:12.814Z,7.66
2023-04-21T11:16:01.561Z,8.81
2023-04-21T11:18:43.009Z,10.37
2023-04-21T11:21:20.232Z,11.46
2023-04-21T11:23:56.275Z,12.24
2023-04-21T11:26:39.581Z,11.55
2023-04-21T11:29:14.545Z,10.19
2023-04-21T11:31:50.336Z,8.85
2023-04-21T11:34:25.576Z,8.01
2023-04-21T11:36:59.541Z,8.49
2023-04-21T11:39:33.499Z,9.62
2023-04-21T11:42:07.668Z,10.94
2023-04-21T11:44:42.730Z,11.62
2023-04-21T11:47:17.572Z,10.76
2023-04-21T11:49:54.988Z,9.99
2023-04-21T11:52:31.050Z,9.76
2023-04-21T11:55:07.069Z,9.47
2023-04-21T11:57:42.152Z,10.45
2023-04-21T12:00:17.831Z,10.36
2023-04-21T12:02:58.671Z,9.92
2023-04-21T12:05:41.412Z,9.43
2023-04-21T12:08:18.047Z,9.32
2023-04-21T12:10:52.709Z,9.27
2023-04-21T12:13:26.503Z,9.04
2023-04-21T12:16:01.437Z,8.80
2023-04-21T12:18:38.452Z,8.78
2023-04-21T12:21:10.242Z,9.07
2023-04-21T12:23:44.844Z,10.18
2023-04-21T12:26:18.510Z,8.81
2023-04-21T12:28:52.266Z,8.63
2023-04-21T12:31:26.168Z,8.84
2023-04-21T12:33:59.693Z,9.02
2023-04-21T12:36:36.513Z,9.20
2023-04-21T12:39:11.006Z,8.87
2023-04-21T12:41:44.328Z,8.46
2023-04-21T12:44:17.947Z,8.39
2023-04-21T12:46:51.596Z,9.01
2023-04-21T12:49:26.065Z,9.90
2023-04-21T12:51:59.939Z,11.07
2023-04-21T12:54:34.056Z,11.85
2023-04-21T12:57:08.050Z,12.57
2023-04-21T12:59:42.531Z,13.13
2023-04-21T13:02:17.571Z,13.44
2023-04-21T13:04:51.213Z,13.90
2023-04-21T13:07:26.793Z,13.95
2023-04-21T13:10:00.881Z,13.51
2023-04-21T13:12:35.805Z,13.66
2023-04-21T13:15:12.191Z,13.77
2023-04-21T13:17:45.940Z,12.85
2023-04-21T13:20:20.564Z,12.06
2023-04-21T13:22:54.412Z,11.22
2023-04-21T13:25:28.278Z,11.83
2023-04-21T13:28:02.190Z,12.14
2023-04-21T13:30:36.866Z,12.68
2023-04-21T13:33:11.133Z,13.47
2023-04-21T13:35:44.939Z,13.96
2023-04-21T13:38:18.524Z,13.36
2023-04-21T13:40:53.044Z,13.34
2023-04-21T13:43:27.065Z,13.90
2023-04-21T13:46:00.982Z,14.31
2023-04-21T13:48:34.697Z,14.81
2023-04-21T13:51:08.794Z,14.86
2023-04-21T13:53:42.194Z,14.98
2023-04-21T13:56:16.358Z,14.98
2023-04-21T13:58:50.031Z,14.98
2023-04-21T14:01:23.638Z,14.11
2023-04-21T14:03:57.821Z,13.28
2023-04-21T14:06:32.569Z,12.85
2023-04-21T14:09:06.557Z,12.28
2023-04-21T14:11:40.289Z,12.72
2023-04-21T14:14:16.944Z,13.63
2023-04-21T14:16:49.676Z,14.21
2023-04-21T14:19:23.734Z,14.74
2023-04-21T14:21:57.229Z,14.97
2023-04-21T14:24:32.721Z,15.31
2023-04-21T14:27:06.385Z,15.58
2023-04-21T14:29:39.907Z,15.64
2023-04-21T14:32:13.601Z,16.00
2023-04-21T14:34:47.571Z,16.19
2023-04-21T14:37:21.127Z,16.05
2023-04-21T14:39:54.547Z,16.20
2023-04-21T14:42:28.148Z,15.98
2023-04-21T14:45:01.729Z,15.84
2023-04-21T14:47:36.182Z,15.38
2023-04-21T14:50:11.963Z,14.64
2023-04-21T14:52:47.530Z,14.24
2023-04-21T14:55:21.537Z,14.55
2023-04-21T14:57:55.177Z,14.49
2023-04-21T15:00:31.186Z,14.23
2023-04-21T15:03:05.373Z,14.60
2023-04-21T15:05:39.334Z,15.24
2023-04-21T15:08:14.601Z,16.09
2023-04-21T15:10:48.862Z,16.53
2023-04-21T15:13:22.767Z,17.00
2023-04-21T15:15:56.311Z,16.97
2023-04-21T15:18:30.118Z,17.04
2023-04-21T15:21:03.683Z,16.95
2023-04-21T15:23:37.961Z,16.81
2023-04-21T15:26:11.618Z,17.01
2023-04-21T15:28:45.356Z,17.57
2023-04-21T15:31:18.933Z,17.95
2023-04-21T15:33:52.889Z,18.27
2023-04-21T15:36:27.802Z,18.54
2023-04-21T15:39:02.038Z,18.75
2023-04-21T15:41:35.941Z,18.97
2023-04-21T15:44:10.687Z,19.55
2023-04-21T15:46:44.644Z,19.53
2023-04-21T15:49:18.547Z,19.64
2023-04-21T15:51:52.464Z,19.57
2023-04-21T15:54:26.707Z,19.74
2023-04-21T15:57:01.184Z,19.46
2023-04-21T15:59:34.990Z,19.64
2023-04-21T16:02:09.732Z,19.60
2023-04-21T16:04:44.700Z,19.59
2023-04-21T16:07:19.635Z,19.82
2023-04-21T16:09:53.790Z,19.67
2023-04-21T16:12:27.478Z,19.74
2023-04-21T16:15:16.124Z,20.00
2023-04-21T16:17:37.754Z,20.08
2023-04-21T16:20:14.838Z,20.09
2023-04-21T16:22:49.885Z,20.59
2023-04-21T16:25:24.004Z,20.47
2023-04-21T16:27:58.078Z,20.93
2023-04-21T16:30:32.934Z,21.05
2023-04-21T16:33:06.867Z,21.21
2023-04-21T16:35:40.857Z,21.33
2023-04-21T16:38:14.942Z,21.44
2023-04-21T16:40:49.878Z,21.55
2023-04-21T16:43:23.828Z,21.78
2023-04-21T16:45:58.020Z,21.69
2023-04-21T16:48:31.640Z,21.64
2023-04-21T16:51:05.909Z,21.79
2023-04-21T16:53:40.373Z,21.82
2023-04-21T16:56:14.917Z,22.30
2023-04-21T16:58:48.463Z,22.33
2023-04-21T17:01:22.174Z,22.64
2023-04-21T17:03:56.070Z,22.84
2023-04-21T17:06:32.094Z,22.99
2023-04-21T17:09:05.847Z,23.00
2023-04-21T17:11:40.360Z,23.47
2023-04-21T17:14:14.128Z,23.27
2023-04-21T17:16:47.657Z,23.33
2023-04-21T17:19:21.373Z,23.84
2023-04-21T17:21:54.312Z,24.08
2023-04-21T17:24:41.383Z,24.10
2023-04-21T17:27:03.248Z,24.66
2023-04-21T17:29:36.953Z,24.70
2023-04-21T17:32:12.788Z,24.77
2023-04-21T17:34:46.358Z,24.51
2023-04-21T17:37:20.675Z,24.44
2023-04-21T17:39:54.707Z,24.46
2023-04-21T17:42:28.005Z,24.34
2023-04-21T17:45:02.437Z,24.28
2023-04-21T17:47:37.483Z,24.39
2023-04-21T17:50:12.976Z,24.54
2023-04-21T17:52:46.620Z,24.55
2023-04-21T17:55:20.691Z,24.66
2023-04-21T17:57:54.062Z,24.67
2023-04-21T18:00:27.816Z,25.04
2023-04-21T18:03:01.378Z,25.15
2023-04-21T18:05:35.098Z,25.25
2023-04-21T18:08:08.864Z,25.33
2023-04-21T18:10:42.213Z,25.45
2023-04-21T18:13:15.489Z,25.53
2023-04-21T18:15:48.777Z,25.51
2023-04-21T18:18:22.193Z,25.67
2023-04-21T18:20:55.612Z,25.61
2023-04-21T18:23:28.760Z,25.62
2023-04-21T18:26:02.101Z,25.81
2023-04-21T18:28:35.706Z,25.77
2023-04-21T18:31:09.068Z,26.02
2023-04-21T18:33:42.902Z,26.44
2023-04-21T18:36:15.820Z,26.41
2023-04-21T18:38:49.608Z,26.45
2023-04-21T18:41:23.203Z,26.45
2023-04-21T18:43:56.985Z,26.30
2023-04-21T18:46:30.295Z,26.24
2023-04-21T18:49:03.771Z,26.51
2023-04-21T18:51:41.119Z,26.86
2023-04-21T18:54:14.624Z,27.18
2023-04-21T18:56:48.456Z,26.94
2023-04-21T18:59:22.259Z,27.12
2023-04-21T19:01:56.230Z,27.27
2023-04-21T19:04:29.587Z,27.21
2023-04-21T19:07:02.999Z,27.40
2023-04-21T19:09:36.008Z,27.56
2023-04-21T19:12:09.718Z,27.59
2023-04-21T19:14:47.470Z,27.51
2023-04-21T19:17:18.211Z,27.32
2023-04-21T19:19:51.967Z,27.86
2023-04-21T19:22:25.691Z,27.68
2023-04-21T19:24:59.012Z,27.39
2023-04-21T19:27:32.703Z,27.61
2023-04-21T19:30:07.266Z,27.79
2023-04-21T19:32:40.486Z,27.70
2023-04-21T19:35:13.827Z,27.94
2023-04-21T19:37:47.331Z,27.78
2023-04-21T19:40:21.365Z,27.89
2023-04-21T19:42:54.631Z,27.69
2023-04-21T19:45:28.452Z,27.73
2023-04-21T19:48:02.098Z,27.68
2023-04-21T19:50:36.234Z,27.79
2023-04-21T19:53:12.145Z,28.05
2023-04-21T19:55:51.824Z,28.13
2023-04-21T19:58:39.508Z,28.41
2023-04-21T20:01:04.602Z,28.35
2023-04-21T20:03:40.105Z,28.25
2023-04-21T20:06:16.046Z,28.74
2023-04-21T20:08:51.581Z,28.83
2023-04-21T20:11:29.081Z,29.01
2023-04-21T20:14:03.810Z,28.99
2023-04-21T20:16:39.747Z,28.87
2023-04-21T20:19:15.250Z,29.14
2023-04-21T20:21:49.865Z,29.21
2023-04-21T20:24:23.214Z,29.10
2023-04-21T20:26:57.615Z,29.13
2023-04-21T20:29:33.587Z,29.33
2023-04-21T20:32:08.363Z,29.55
2023-04-21T20:34:45.417Z,30.30
2023-04-21T20:40:22.673Z,27.39
2023-04-21T20:42:56.690Z,29.82
2023-04-21T20:45:44.820Z,29.98
2023-04-21T20:48:21.761Z,29.94
2023-04-21T20:50:56.026Z,29.55
2023-04-21T20:53:29.358Z,30.00
2023-04-21T20:56:02.632Z,30.22
2023-04-21T20:58:37.843Z,30.05
2023-04-21T21:01:11.378Z,30.40
2023-04-21T21:03:45.629Z,30.83
2023-04-21T21:06:19.875Z,30.63
2023-04-21T21:08:53.385Z,30.52
2023-04-21T21:11:26.922Z,30.66
2023-04-21T21:14:26.186Z,30.80
2023-04-21T21:17:03.356Z,30.79
2023-04-21T21:19:36.787Z,30.87
2023-04-21T21:22:11.337Z,30.97
2023-04-21T21:24:44.777Z,31.22
2023-04-21T21:27:18.087Z,31.19
2023-04-21T21:29:51.132Z,31.86
2023-04-21T21:32:24.619Z,32.07
2023-04-21T21:34:57.833Z,31.68
2023-04-21T21:37:31.377Z,31.99
2023-04-21T21:40:10.947Z,31.96
2023-04-21T21:42:44.165Z,32.10
2023-04-21T21:45:17.682Z,31.62
2023-04-21T21:47:51.851Z,31.51
2023-04-21T21:50:25.210Z,32.39
2023-04-21T21:52:58.316Z,32.15
2023-04-21T21:55:31.387Z,32.38
2023-04-21T21:58:05.258Z,32.26
2023-04-21T22:00:39.459Z,32.30
2023-04-21T22:03:13.136Z,32.38
2023-04-21T22:05:46.465Z,32.35
2023-04-21T22:08:19.710Z,32.18
2023-04-21T22:10:52.712Z,32.50
2023-04-21T22:13:26.053Z,32.71
2023-04-21T22:15:59.188Z,33.23
2023-04-21T22:18:32.428Z,32.82
2023-04-21T22:21:05.984Z,32.60
2023-04-21T22:23:39.187Z,32.85
2023-04-21T22:26:12.626Z,33.17
2023-04-21T22:28:47.561Z,32.91
2023-04-21T22:31:21.037Z,33.40
2023-04-21T22:33:54.165Z,33.52
2023-04-21T22:36:27.485Z,34.12
2023-04-21T22:39:00.520Z,33.94
2023-04-21T22:41:33.765Z,33.70
2023-04-21T22:44:06.884Z,34.08
2023-04-21T22:46:42.828Z,34.42
2023-04-21T22:49:17.336Z,34.27
2023-04-21T22:51:51.353Z,33.94
2023-04-21T22:54:24.582Z,33.94
2023-04-21T22:56:57.601Z,33.63
2023-04-21T22:59:31.400Z,33.35
2023-04-21T23:02:05.501Z,33.42
2023-04-21T23:04:38.843Z,33.40
2023-04-21T23:07:11.965Z,33.09
2023-04-21T23:09:45.311Z,33.45
2023-04-21T23:12:18.399Z,33.29
2023-04-21T23:14:51.914Z,33.43
2023-04-21T23:17:25.204Z,33.54
2023-04-21T23:19:58.968Z,33.61
2023-04-21T23:22:33.613Z,33.67
2023-04-21T23:25:07.876Z,33.92
2023-04-21T23:27:41.204Z,34.08
2023-04-21T23:30:15.998Z,33.94
2023-04-21T23:32:50.457Z,34.43
2023-04-21T23:35:24.069Z,34.13
2023-04-21T23:37:57.581Z,34.04
2023-04-21T23:40:30.867Z,34.05
2023-04-21T23:43:04.562Z,34.00
2023-04-21T23:45:38.013Z,33.90
2023-04-21T23:48:11.831Z,34.18
2023-04-21T23:50:45.527Z,34.27
2023-04-21T23:53:19.081Z,34.92
2023-04-21T23:55:52.237Z,35.00
2023-04-21T23:58:26.218Z,34.72
